Amory, Mississippi
Current Conditions -  °F | °C
As of 12:35 AM on Monday 24 Nov 2014 (Local Time) from KM40 Reporting Station
Clear Clear  
Wind Chill: 61°   Ceiling: Unl
Heat Index: 61°   Visibility: 9mi
Dew Point: 46°   Wind: 10mph
Humidity: 59%   Direction: 180°S
Pressure: 29.59"   Gusts: NA
Location:  33.99°N, 88.49°W
Report Text: KM40 240635Z AUTO 18009KT 9SM CLR 16/08 A2959 RMK AO2
Loading
Personal Weather Stations






























Interactive Weather Map New forecast layout! Learn more

10-Day Weather Forecast

Advertisements
Track Severe Weather on mobile